Saturday, August 18, 2018, 1:57 PM GMT
Back to Local

CYBG, Bagotville, Que.

Location: , , Canada Lat: 48.333
Local Time: 1:57 PM GMT (13:57 GMT) Lon: -71
Time Zone: GMT Elev: 521 ft

Show me the last for .
Show Decoded

2018-08-18 13:00 METAR CYBG 181300Z 25004KT 25SM FEW006 SCT025 BKN250 16/15 A2996 RMK SF2SC2CI2
                 SLP148 =
2018-08-18 12:00 METAR CYBG 181200Z 25003KT 7SM R11/P6000FT SCT002 BKN025 OVC250 14/12 A2996 RMK
                 ST4SC2CI2 VIS VRB 1/4-3/4 SLP149 =
2018-08-18 11:43 METAR CYBG 181143Z 25003KT 1/2SM R11/P6000FT FG VV002 14/14 A2997 RMK FG8 VIS
                 VRB 1/4-3/4 SLP150 =
2018-08-18 11:00 METAR CYBG 181100Z 23005KT 1/4SM R11/0900FT FG VV001 14/14 A2996 RMK FG8 VIS VRB
                 1/8-3/8 SLP147 =
2018-08-18 10:00 METAR CYBG 181000Z 21002KT 1/4SM R11/1000FT FG VV001 13/13 A2995 RMK FG8 VIS VRB
                 1/8-3/8 SLP145 =
2018-08-18 09:00 METAR CYBG 180900Z 22003KT 3/8SM R11/2400FT FG VV001 12/12 A2994 RMK FG8 VIS VRB
                 1/4-1/2 SLP141 =
2018-08-18 08:00 METAR CYBG 180800Z 16002KT 3/8SM R11/2400FT FG VV001 11/11 A2993 RMK FG8 VIS VRB
                 1/4-1/2 SLP139 =
2018-08-18 07:00 METAR CYBG 180700Z 00000KT 3/4SM R11/1400FT BR VV002 12/12 A2993 RMK FG8 VIS VRB
                 1/2-1 SLP138 =
2018-08-18 06:31 METAR CYBG 180631Z 00000KT 3/8SM R11/1800FT FG VV001 13/13 A2993 RMK FG8 VIS VRB
                 1/4-1/2 SLP139 =
2018-08-18 06:00 METAR CYBG 180600Z 27004KT 3/4SM R11/2200FT BR VV002 13/13 A2994 RMK FG8 VIS VRB
                 1/2-1 SLP141 =
2018-08-18 05:00 METAR CYBG 180500Z 26002KT 3SM R11/2000FT BR BKN180 14/14 A2994 RMK AC5 VIS VRB
                 2-4 VIS 1/4 S QUAD SLP139 =
2018-08-18 04:47 METAR CYBG 180447Z 22002KT 1SM R11/1400FT BR BKN180 13/13 A2994 RMK AC5 VIS 1/4
                 S QUAD SLP140 =
2018-08-18 04:34 METAR CYBG 180434Z 20002KT 3SM R11/1400FT BR MIFG BKN180 14/14 A2994 RMK AC5 VIS
                 LWR S SLP140 =
2018-08-18 04:00 METAR CYBG 180400Z 00000KT 15SM BKN180 15/14 A2994 RMK AC5 SLP141 =
2018-08-18 03:00 METAR CYBG 180300Z 11004KT 10SM SCT110 OVC180 16/14 A2994 RMK AC3AC5 SLP141 =
2018-08-18 02:16 METAR CYBG 180216Z 00000KT 6SM -RA BR FEW052 OVC080 16/14 A2996 RMK SC2AC6
                 SLP148 =
2018-08-18 02:00 METAR CYBG 180200Z CCA 00000KT 6SM RA BR FEW052 OVC110 16/14 A2997 RMK SC2AC6
                 SLP151 =
2018-08-18 01:14 METAR CYBG 180114Z 00000KT 6SM RA BR FEW054 OVC110 17/16 A2998 RMK SC2AC6 SLP154
                 =
2018-08-18 01:00 METAR CYBG 180100Z 28002KT 6SM -RA BR FEW054 OVC100 17/16 A2998 RMK SC2AC6
                 SLP154 =
2018-08-18 00:37 METAR CYBG 180037Z 32003KT 7SM -RA FEW054 OVC110 18/16 A2997 RMK SC2AC6 SLP152 =
2018-08-18 00:20 METAR CYBG 180020Z 32003KT 10SM RA FEW054 OVC110 18/16 A2997 RMK SC2AC6 SLP151 =
2018-08-18 00:00 METAR CYBG 180000Z 32004KT 15SM -RA FEW040 OVC110 19/17 A2996 RMK SC1AC7 SLP147
                 =
2018-08-17 23:23 METAR CYBG 172323Z 36003KT 20SM -RA FEW040 OVC110 20/17 A2994 RMK SC1AC7 SLP141
                 =
2018-08-17 23:00 METAR CYBG 172300Z 36003KT 25SM FEW040 OVC120 20/17 A2994 RMK SC1AC7 SLP141 =
2018-08-17 22:00 METAR CYBG 172200Z 34002KT 25SM FEW040 OVC180 21/17 A2995 RMK SC1AC8 SLP145 =
2018-08-17 21:00 METAR CYBG 172100Z 30003KT 25SM FEW040 OVC180 22/17 A2995 RMK SC1AC8 SLP145 =
2018-08-17 20:00 METAR CYBG 172000Z 00000KT 25SM FEW030 OVC180 22/17 A2996 RMK SC1AC8 SLP149 =
2018-08-17 19:00 METAR CYBG 171900Z 34005KT 25SM FEW030 OVC180 22/17 A2997 RMK SC1AC8 SLP153 =
2018-08-17 18:00 METAR CYBG 171800Z 36005KT 25SM FEW030 OVC180 23/17 A2998 RMK SC1AC8 SLP153 =
2018-08-17 17:00 METAR CYBG 171700Z 36006KT 25SM FEW030 SCT180 23/16 A2999 RMK SC1AC3 SLP157 =
2018-08-17 16:00 METAR CYBG 171600Z 00000KT 25SM FEW030 BKN250 22/14 A3001 RMK SC1CI6 SLP163 =
2018-08-17 15:00 METAR CYBG 171500Z 04004KT 25SM FEW030 SCT250 20/12 A3003 RMK SC1CI3 SLP173 =
2018-08-17 14:00 METAR CYBG 171400Z 05005KT 25SM BKN250 18/11 A3005 RMK CI5 SLP180 =

Support USWX by starting your Amazon purchase here.